createdAt,value
2019-03-02T00:00:12.728Z,1018.69
2019-03-02T00:00:53.318Z,1018.72
2019-03-02T00:01:33.964Z,1018.72
2019-03-02T00:02:14.552Z,1018.64
2019-03-02T00:02:56.725Z,1018.67
2019-03-02T00:03:35.970Z,1018.68
2019-03-02T00:04:16.333Z,1018.7
2019-03-02T00:04:56.926Z,1018.7
2019-03-02T00:05:37.529Z,1018.69
2019-03-02T00:06:18.098Z,1018.7
2019-03-02T00:06:58.704Z,1018.67
2019-03-02T00:07:39.312Z,1018.64
2019-03-02T00:08:21.765Z,1018.68
2019-03-02T00:09:00.978Z,1018.68
2019-03-02T00:09:41.101Z,1018.69
2019-03-02T00:10:23.720Z,1018.68
2019-03-02T00:11:02.281Z,1018.68
2019-03-02T00:11:42.866Z,1018.65
2019-03-02T00:12:23.467Z,1018.66
2019-03-02T00:13:07.334Z,1018.66
2019-03-02T00:13:44.965Z,1018.67
2019-03-02T00:14:25.575Z,1018.68
2019-03-02T00:15:06.171Z,1018.65
2019-03-02T00:15:46.772Z,1018.68
2019-03-02T00:16:27.398Z,1018.68
2019-03-02T00:17:08.156Z,1018.72
2019-03-02T00:17:50.542Z,1018.7
2019-03-02T00:18:30.636Z,1018.67
2019-03-02T00:19:11.228Z,1018.65
2019-03-02T00:19:51.819Z,1018.65
2019-03-02T00:20:32.469Z,1018.7
2019-03-02T00:21:13.048Z,1018.72
2019-03-02T00:21:53.633Z,1018.73
2019-03-02T00:22:34.460Z,1018.74
2019-03-02T00:23:15.738Z,1018.78
2019-03-02T00:23:57.287Z,1018.74
2019-03-02T00:24:37.865Z,1018.74
2019-03-02T00:25:18.453Z,1018.73
2019-03-02T00:25:59.051Z,1018.73
2019-03-02T00:26:42.826Z,1018.72
2019-03-02T00:27:21.179Z,1018.74
2019-03-02T00:28:00.866Z,1018.72
2019-03-02T00:28:41.446Z,1018.77
2019-03-02T00:29:22.226Z,1018.75
2019-03-02T00:30:02.922Z,1018.77
2019-03-02T00:30:43.514Z,1018.72
2019-03-02T00:31:24.101Z,1018.76
2019-03-02T00:32:05.773Z,1018.75
2019-03-02T00:32:45.965Z,1018.73
2019-03-02T00:33:25.883Z,1018.73
2019-03-02T00:34:06.504Z,1018.74
2019-03-02T00:34:47.106Z,1018.78
2019-03-02T00:35:27.747Z,1018.75
2019-03-02T00:36:08.332Z,1018.8
2019-03-02T00:36:50.938Z,1018.77
2019-03-02T00:37:32.615Z,1018.7
2019-03-02T00:38:10.191Z,1018.67
2019-03-02T00:38:50.778Z,1018.74
2019-03-02T00:39:31.362Z,1018.74
2019-03-02T00:40:11.966Z,1018.72
2019-03-02T00:40:52.571Z,1018.74
2019-03-02T00:41:33.865Z,1018.75
2019-03-02T00:42:16.971Z,1018.74
2019-03-02T00:42:55.149Z,1018.76
2019-03-02T00:43:35.752Z,1018.77
2019-03-02T00:44:16.352Z,1018.77
2019-03-02T00:44:56.941Z,1018.78
2019-03-02T00:45:37.526Z,1018.81
2019-03-02T00:46:20.595Z,1018.77
2019-03-02T00:46:59.571Z,1018.81
2019-03-02T00:47:40.031Z,1018.83
2019-03-02T00:48:21.272Z,1018.86
2019-03-02T00:49:01.899Z,1018.81
2019-03-02T00:49:43.049Z,1018.87
2019-03-02T00:51:07.856Z,1018.83
2019-03-02T00:51:48.039Z,1018.9
2019-03-02T00:52:28.651Z,1018.87
2019-03-02T00:53:09.569Z,1018.87
2019-03-02T00:53:50.909Z,1018.91
2019-03-02T00:54:31.874Z,1018.9
2019-03-02T00:55:12.492Z,1018.82
2019-03-02T00:55:53.102Z,1018.83
2019-03-02T00:56:33.882Z,1018.86
2019-03-02T00:57:18.542Z,1018.88
2019-03-02T00:57:57.299Z,1018.93
2019-03-02T00:58:37.883Z,1018.88
2019-03-02T00:59:19.023Z,1018.86
2019-03-02T01:00:07.423Z,1018.84
2019-03-02T01:00:49.886Z,1018.84
2019-03-02T01:01:29.546Z,1018.86
2019-03-02T01:02:09.949Z,1018.84
2019-03-02T01:02:50.591Z,1018.87
2019-03-02T01:03:31.204Z,1018.84
2019-03-02T01:04:11.807Z,1018.83
2019-03-02T01:04:52.403Z,1018.86
2019-03-02T01:05:33.440Z,1018.82
2019-03-02T01:06:13.795Z,1018.85
2019-03-02T01:06:54.179Z,1018.84
2019-03-02T01:07:34.763Z,1018.81
2019-03-02T01:08:15.342Z,1018.82
2019-03-02T01:08:55.949Z,1018.82
2019-03-02T01:09:36.535Z,1018.85
2019-03-02T01:10:18.835Z,1018.85
2019-03-02T01:10:58.100Z,1018.82
2019-03-02T01:11:38.299Z,1018.84
2019-03-02T01:12:18.884Z,1018.85
2019-03-02T01:12:59.479Z,1018.85
2019-03-02T01:13:40.149Z,1018.81
2019-03-02T01:14:20.736Z,1018.87
2019-03-02T01:15:01.331Z,1018.82
2019-03-02T01:15:43.989Z,1018.82
2019-03-02T01:16:22.578Z,1018.82
2019-03-02T01:17:03.158Z,1018.81
2019-03-02T01:17:43.750Z,1018.8
2019-03-02T01:18:24.386Z,1018.83
2019-03-02T01:19:04.973Z,1018.81
2019-03-02T01:19:45.570Z,1018.74
2019-03-02T01:20:28.577Z,1018.76
2019-03-02T01:21:06.770Z,1018.77
2019-03-02T01:21:47.375Z,1018.73
2019-03-02T01:22:27.979Z,1018.77
2019-03-02T01:23:08.569Z,1018.76
2019-03-02T01:23:49.161Z,1018.81
2019-03-02T01:24:29.753Z,1018.79
2019-03-02T01:25:13.031Z,1018.77
2019-03-02T01:25:50.953Z,1018.79
2019-03-02T01:26:31.539Z,1018.78
2019-03-02T01:27:12.124Z,1018.78
2019-03-02T01:27:52.713Z,1018.77
2019-03-02T01:28:33.297Z,1018.78
2019-03-02T01:29:15.468Z,1018.79
2019-03-02T01:29:54.780Z,1018.79
2019-03-02T01:30:35.063Z,1018.8
2019-03-02T01:31:15.647Z,1018.72
2019-03-02T01:31:56.257Z,1018.76
2019-03-02T01:32:36.846Z,1018.79
2019-03-02T01:33:17.471Z,1018.8
2019-03-02T01:34:00.623Z,1018.79
2019-03-02T01:34:42.082Z,1018.72
2019-03-02T01:35:19.995Z,1018.74
2019-03-02T01:35:59.871Z,1018.72
2019-03-02T01:36:40.469Z,1018.74
2019-03-02T01:37:21.064Z,1018.75
2019-03-02T01:38:01.651Z,1018.71
2019-03-02T01:38:42.273Z,1018.75
2019-03-02T01:39:25.745Z,1018.73
2019-03-02T01:40:04.798Z,1018.75
2019-03-02T01:40:44.029Z,1018.72
2019-03-02T01:41:24.625Z,1018.71
2019-03-02T01:42:05.225Z,1018.68
2019-03-02T01:42:45.812Z,1018.7
2019-03-02T01:43:26.405Z,1018.72
2019-03-02T01:44:06.990Z,1018.68
2019-03-02T01:44:48.696Z,1018.73
2019-03-02T01:45:28.968Z,1018.71
2019-03-02T01:46:08.760Z,1018.69
2019-03-02T01:46:49.373Z,1018.7
2019-03-02T01:47:29.977Z,1018.69
2019-03-02T01:48:10.581Z,1018.7
2019-03-02T01:48:51.181Z,1018.71
2019-03-02T01:49:33.462Z,1018.7
2019-03-02T01:50:12.732Z,1018.71
2019-03-02T01:50:52.939Z,1018.68
2019-03-02T01:51:33.535Z,1018.66
2019-03-02T01:52:14.143Z,1018.63
2019-03-02T01:52:54.739Z,1018.64
2019-03-02T01:53:35.336Z,1018.63
2019-03-02T01:54:17.841Z,1018.61
2019-03-02T01:54:56.656Z,1018.63
2019-03-02T01:55:37.117Z,1018.59
2019-03-02T01:56:17.707Z,1018.62
2019-03-02T01:56:58.305Z,1018.63
2019-03-02T01:57:38.911Z,1018.57
2019-03-02T01:58:19.512Z,1018.57
2019-03-02T01:59:00.555Z,1018.59
2019-03-02T01:59:40.717Z,1018.59
2019-03-02T02:00:21.331Z,1018.61
2019-03-02T02:01:01.929Z,1018.59
2019-03-02T02:01:42.573Z,1018.57
2019-03-02T02:02:23.175Z,1018.56
2019-03-02T02:03:03.779Z,1018.59
2019-03-02T02:03:46.968Z,1018.61
2019-03-02T02:04:24.967Z,1018.57
2019-03-02T02:05:05.573Z,1018.53
2019-03-02T02:05:46.161Z,1018.57
2019-03-02T02:06:26.751Z,1018.58
2019-03-02T02:07:07.363Z,1018.61
2019-03-02T02:07:53.437Z,1018.6
2019-03-02T02:08:29.752Z,1018.6
2019-03-02T02:09:09.188Z,1018.64
2019-03-02T02:09:49.779Z,1018.63
2019-03-02T02:10:32.173Z,1018.61
2019-03-02T02:11:14.492Z,1018.61
2019-03-02T02:11:54.237Z,1018.61
2019-03-02T02:12:33.949Z,1018.65
2019-03-02T02:13:14.549Z,1018.71
2019-03-02T02:13:55.133Z,1018.7
2019-03-02T02:14:35.737Z,1018.66
2019-03-02T02:15:16.346Z,1018.63
2019-03-02T02:15:56.935Z,1018.61
2019-03-02T02:16:38.789Z,1018.64
2019-03-02T02:17:18.558Z,1018.67
2019-03-02T02:17:58.729Z,1018.68
2019-03-02T02:18:39.313Z,1018.63
2019-03-02T02:19:19.903Z,1018.65
2019-03-02T02:20:00.503Z,1018.68
2019-03-02T02:20:41.089Z,1018.7
2019-03-02T02:21:23.595Z,1018.68
2019-03-02T02:22:03.021Z,1018.68
2019-03-02T02:22:42.890Z,1018.64
2019-03-02T02:23:23.475Z,1018.65
2019-03-02T02:24:04.057Z,1018.64
2019-03-02T02:24:44.641Z,1018.62
2019-03-02T02:25:25.225Z,1018.65
2019-03-02T02:26:07.594Z,1018.6
2019-03-02T02:26:46.855Z,1018.62
2019-03-02T02:27:27.015Z,1018.62
2019-03-02T02:28:07.599Z,1018.61
2019-03-02T02:28:48.191Z,1018.54
2019-03-02T02:29:28.803Z,1018.62
2019-03-02T02:30:09.416Z,1018.56
2019-03-02T02:30:50.014Z,1018.56
2019-03-02T02:31:30.598Z,1018.58
2019-03-02T02:32:11.207Z,1018.52
2019-03-02T02:32:51.826Z,1018.54
2019-03-02T02:33:32.474Z,1018.5
2019-03-02T02:34:20.959Z,1018.59
2019-03-02T02:34:56.325Z,1018.53
2019-03-02T02:35:39.256Z,1018.53
2019-03-02T02:36:18.756Z,1018.56
2019-03-02T02:36:58.070Z,1018.58
2019-03-02T02:37:36.954Z,1018.57
2019-03-02T02:38:17.553Z,1018.6
2019-03-02T02:38:57.257Z,1018.52
2019-03-02T02:39:37.854Z,1018.51
2019-03-02T02:40:18.449Z,1018.53
2019-03-02T02:40:59.039Z,1018.48
2019-03-02T02:41:39.635Z,1018.51
2019-03-02T02:42:20.254Z,1018.51
2019-03-02T02:43:00.851Z,1018.47
2019-03-02T02:43:41.432Z,1018.44
2019-03-02T02:44:22.011Z,1018.48
2019-03-02T02:45:02.611Z,1018.46
2019-03-02T02:45:43.201Z,1018.48
2019-03-02T02:46:27.278Z,1018.5
2019-03-02T02:47:06.993Z,1018.49
2019-03-02T02:47:50.159Z,1018.5
2019-03-02T02:48:26.239Z,1018.48
2019-03-02T02:49:10.069Z,1018.52
2019-03-02T02:49:49.094Z,1018.5
2019-03-02T02:50:30.670Z,1018.55
2019-03-02T02:51:09.625Z,1018.58
2019-03-02T02:51:49.294Z,1018.51
2019-03-02T02:52:29.487Z,1018.5
2019-03-02T02:53:09.831Z,1018.52
2019-03-02T02:53:50.426Z,1018.5
2019-03-02T02:54:31.012Z,1018.42
2019-03-02T02:55:11.610Z,1018.47
2019-03-02T02:55:52.216Z,1018.53
2019-03-02T02:56:34.683Z,1018.5
2019-03-02T02:57:13.403Z,1018.53
2019-03-02T02:57:54.008Z,1018.53
2019-03-02T02:58:34.602Z,1018.48
2019-03-02T02:59:15.193Z,1018.48
2019-03-02T02:59:55.783Z,1018.48
2019-03-02T03:00:36.373Z,1018.49
2019-03-02T03:01:16.962Z,1018.54
2019-03-02T03:01:57.562Z,1018.57
2019-03-02T03:02:38.152Z,1018.57
2019-03-02T03:03:20.671Z,1018.56
2019-03-02T03:04:00.784Z,1018.53
2019-03-02T03:04:39.971Z,1018.51
2019-03-02T03:05:20.554Z,1018.51
2019-03-02T03:06:01.147Z,1018.54
2019-03-02T03:06:41.739Z,1018.51
2019-03-02T03:07:22.340Z,1018.52
2019-03-02T03:08:02.949Z,1018.56
2019-03-02T03:08:43.530Z,1018.56
2019-03-02T03:09:24.122Z,1018.48
2019-03-02T03:10:04.713Z,1018.5
2019-03-02T03:10:45.300Z,1018.5
2019-03-02T03:11:25.880Z,1018.57
2019-03-02T03:12:06.465Z,1018.59
2019-03-02T03:12:47.056Z,1018.57
2019-03-02T03:13:27.646Z,1018.59
2019-03-02T03:14:08.261Z,1018.58
2019-03-02T03:14:48.854Z,1018.56
2019-03-02T03:15:35.928Z,1018.62
2019-03-02T03:16:11.469Z,1018.62
2019-03-02T03:16:53.999Z,1018.66
2019-03-02T03:17:32.357Z,1018.65
2019-03-02T03:18:14.370Z,1018.69
2019-03-02T03:18:53.720Z,1018.64
2019-03-02T03:19:33.040Z,1018.67
2019-03-02T03:20:13.602Z,1018.67
2019-03-02T03:20:54.190Z,1018.68
2019-03-02T03:21:34.779Z,1018.62
2019-03-02T03:22:15.362Z,1018.6
2019-03-02T03:22:55.974Z,1018.59
2019-03-02T03:23:36.580Z,1018.59
2019-03-02T03:24:17.161Z,1018.56
2019-03-02T03:24:57.751Z,1018.59
2019-03-02T03:25:38.353Z,1018.54
2019-03-02T03:26:18.929Z,1018.56
2019-03-02T03:26:59.510Z,1018.52
2019-03-02T03:27:40.112Z,1018.5
2019-03-02T03:28:20.715Z,1018.5
2019-03-02T03:29:05.177Z,1018.52
2019-03-02T03:29:44.370Z,1018.51
2019-03-02T03:30:32.811Z,1018.45
2019-03-02T03:31:03.080Z,1018.46
2019-03-02T03:31:43.672Z,1018.42
2019-03-02T03:32:24.294Z,1018.5
2019-03-02T03:33:04.860Z,1018.5
2019-03-02T03:33:47.112Z,1018.48
2019-03-02T03:35:15.176Z,1018.5
2019-03-02T03:35:51.619Z,1018.48
2019-03-02T03:36:29.995Z,1018.53
2019-03-02T03:37:12.905Z,1018.5
2019-03-02T03:37:51.096Z,1018.49
2019-03-02T03:38:30.835Z,1018.57
2019-03-02T03:39:12.815Z,1018.59
2019-03-02T03:39:50.833Z,1018.61
2019-03-02T03:40:31.425Z,1018.62
2019-03-02T03:41:12.022Z,1018.57
2019-03-02T03:41:52.599Z,1018.58
2019-03-02T03:42:33.197Z,1018.58
2019-03-02T03:43:13.801Z,1018.64
2019-03-02T03:43:54.383Z,1018.61
2019-03-02T03:44:34.983Z,1018.65
2019-03-02T03:45:15.576Z,1018.63
2019-03-02T03:45:56.166Z,1018.63
2019-03-02T03:46:36.756Z,1018.66
2019-03-02T03:47:17.345Z,1018.67
2019-03-02T03:47:57.941Z,1018.66
2019-03-02T03:48:38.530Z,1018.67
2019-03-02T03:49:19.112Z,1018.66
2019-03-02T03:49:59.710Z,1018.67
2019-03-02T03:50:40.319Z,1018.7
2019-03-02T03:51:20.906Z,1018.68
2019-03-02T03:52:03.811Z,1018.65
2019-03-02T03:52:43.942Z,1018.67
2019-03-02T03:53:26.359Z,1018.64
2019-03-02T03:54:06.697Z,1018.66
2019-03-02T03:54:45.366Z,1018.68
2019-03-02T03:55:27.090Z,1018.65
2019-03-02T03:56:05.518Z,1018.66
2019-03-02T03:56:45.629Z,1018.67
2019-03-02T03:57:26.231Z,1018.64
2019-03-02T03:58:06.814Z,1018.66
2019-03-02T03:58:47.414Z,1018.68
2019-03-02T03:59:27.990Z,1018.65
2019-03-02T04:00:08.623Z,1018.69
2019-03-02T04:00:49.217Z,1018.69
2019-03-02T04:01:29.809Z,1018.79
2019-03-02T04:02:10.454Z,1018.75
2019-03-02T04:02:51.035Z,1018.81
2019-03-02T04:03:31.637Z,1018.81
2019-03-02T04:04:12.235Z,1018.77
2019-03-02T04:04:52.829Z,1018.81
2019-03-02T04:05:33.418Z,1018.78
2019-03-02T04:06:14.025Z,1018.77
2019-03-02T04:06:54.620Z,1018.78
2019-03-02T04:07:35.211Z,1018.79
2019-03-02T04:08:15.803Z,1018.8
2019-03-02T04:08:56.386Z,1018.81
2019-03-02T04:09:36.979Z,1018.8
2019-03-02T04:10:24.421Z,1018.83
2019-03-02T04:11:00.075Z,1018.82
2019-03-02T04:11:41.990Z,1018.83
2019-03-02T04:12:19.724Z,1018.87
2019-03-02T04:13:04.714Z,1018.84
2019-03-02T04:13:44.695Z,1018.83
2019-03-02T04:14:23.255Z,1018.85
2019-03-02T04:15:03.014Z,1018.85
2019-03-02T04:15:43.441Z,1018.85
2019-03-02T04:16:23.129Z,1018.92
2019-03-02T04:17:03.541Z,1018.92
2019-03-02T04:17:44.149Z,1018.9
2019-03-02T04:18:24.741Z,1018.89
2019-03-02T04:19:05.333Z,1018.88
2019-03-02T04:19:45.927Z,1018.86
2019-03-02T04:20:26.509Z,1018.88
2019-03-02T04:21:07.104Z,1018.87
2019-03-02T04:21:47.715Z,1018.85
2019-03-02T04:22:28.287Z,1018.91
2019-03-02T04:23:08.869Z,1018.92
2019-03-02T04:23:49.459Z,1018.91
2019-03-02T04:24:30.068Z,1018.92
2019-03-02T04:25:12.905Z,1018.87
2019-03-02T04:25:52.007Z,1018.93
2019-03-02T04:26:36.343Z,1018.92
2019-03-02T04:27:15.304Z,1018.91
2019-03-02T04:27:54.110Z,1018.92
2019-03-02T04:28:33.621Z,1018.93
2019-03-02T04:29:14.238Z,1018.96
2019-03-02T04:29:55.489Z,1018.96
2019-03-02T04:30:35.422Z,1018.96
2019-03-02T04:31:16.025Z,1018.97
2019-03-02T04:31:56.616Z,1018.97
2019-03-02T04:32:37.209Z,1018.97
2019-03-02T04:33:17.790Z,1018.97
2019-03-02T04:33:58.386Z,1018.97
2019-03-02T04:34:38.992Z,1018.96
2019-03-02T04:35:19.578Z,1018.97
2019-03-02T04:36:00.175Z,1018.99
2019-03-02T04:36:43.048Z,1018.98
2019-03-02T04:37:23.729Z,1018.97
2019-03-02T04:38:02.218Z,1019.01
2019-03-02T04:38:42.534Z,1018.97
2019-03-02T04:39:23.124Z,1018.94
2019-03-02T04:40:03.773Z,1018.96
2019-03-02T04:40:44.352Z,1018.95
2019-03-02T04:41:24.935Z,1018.97
2019-03-02T04:42:05.532Z,1018.97
2019-03-02T04:42:46.392Z,1019.01
2019-03-02T04:43:26.693Z,1018.96
2019-03-02T04:44:07.287Z,1018.98
2019-03-02T04:44:47.877Z,1018.99
2019-03-02T04:45:28.475Z,1019.02
2019-03-02T04:46:11.632Z,1019.01
2019-03-02T04:46:51.269Z,1019
2019-03-02T04:47:30.304Z,1019
2019-03-02T04:48:10.913Z,1019
2019-03-02T04:48:51.501Z,1019
2019-03-02T04:49:32.109Z,1019.05
2019-03-02T04:50:12.705Z,1019.04
2019-03-02T04:50:53.295Z,1019.09
2019-03-02T04:51:34.981Z,1019.11
2019-03-02T04:52:14.657Z,1019.13
2019-03-02T04:52:55.062Z,1019.17
2019-03-02T04:53:35.645Z,1019.15
2019-03-02T04:54:16.232Z,1019.13
2019-03-02T04:54:56.823Z,1019.12
2019-03-02T04:55:37.404Z,1019.18
2019-03-02T04:56:20.553Z,1019.15
2019-03-02T04:56:58.858Z,1019.14
2019-03-02T04:57:39.166Z,1019.11
2019-03-02T04:58:19.758Z,1019.11
2019-03-02T04:59:00.352Z,1019.11
2019-03-02T04:59:40.952Z,1019.12
2019-03-02T05:00:21.543Z,1019.12
2019-03-02T05:01:03.823Z,1019.1
2019-03-02T05:01:45.316Z,1019.07
2019-03-02T05:02:23.312Z,1019.08
2019-03-02T05:03:03.899Z,1019.07
2019-03-02T05:03:44.511Z,1019.08
2019-03-02T05:04:25.104Z,1019.11
2019-03-02T05:05:08.244Z,1019.13
2019-03-02T05:05:46.279Z,1019.1
2019-03-02T05:06:26.865Z,1019.14
2019-03-02T05:07:07.441Z,1019.12
2019-03-02T05:07:48.036Z,1019.13
2019-03-02T05:08:28.662Z,1019.13
2019-03-02T05:09:09.252Z,1019.14
2019-03-02T05:09:51.982Z,1019.13
2019-03-02T05:10:30.472Z,1019.17
2019-03-02T05:11:11.063Z,1019.12
2019-03-02T05:11:51.653Z,1019.17
2019-03-02T05:12:32.237Z,1019.18
2019-03-02T05:13:12.835Z,1019.16
2019-03-02T05:13:53.429Z,1019.12
2019-03-02T05:14:36.666Z,1019.15
2019-03-02T05:15:15.916Z,1019.16
2019-03-02T05:15:55.220Z,1019.16
2019-03-02T05:16:35.806Z,1019.16
2019-03-02T05:17:16.393Z,1019.17
2019-03-02T05:17:56.975Z,1019.23
2019-03-02T05:18:37.572Z,1019.25
2019-03-02T05:19:18.204Z,1019.23
2019-03-02T05:20:00.737Z,1019.24
2019-03-02T05:20:41.001Z,1019.24
2019-03-02T05:21:19.969Z,1019.25
2019-03-02T05:22:00.578Z,1019.22
2019-03-02T05:22:41.145Z,1019.27
2019-03-02T05:23:21.730Z,1019.26
2019-03-02T05:24:02.813Z,1019.28
2019-03-02T05:24:43.504Z,1019.3
2019-03-02T05:25:23.500Z,1019.32
2019-03-02T05:26:04.134Z,1019.31
2019-03-02T05:26:44.729Z,1019.32
2019-03-02T05:27:25.339Z,1019.31
2019-03-02T05:28:07.225Z,1019.37
2019-03-02T05:28:46.554Z,1019.32
2019-03-02T05:29:27.157Z,1019.38
2019-03-02T05:30:07.759Z,1019.33
2019-03-02T05:30:48.350Z,1019.33
2019-03-02T05:31:28.929Z,1019.31
2019-03-02T05:32:12.500Z,1019.34
2019-03-02T05:32:51.211Z,1019.33
2019-03-02T05:33:30.707Z,1019.34
2019-03-02T05:34:11.290Z,1019.35
2019-03-02T05:34:51.871Z,1019.33
2019-03-02T05:35:32.448Z,1019.36
2019-03-02T05:36:13.032Z,1019.33
2019-03-02T05:36:53.628Z,1019.36
2019-03-02T05:37:34.899Z,1019.36
2019-03-02T05:38:15.139Z,1019.36
2019-03-02T05:38:55.396Z,1019.31
2019-03-02T05:39:35.993Z,1019.31
2019-03-02T05:40:16.578Z,1019.28
2019-03-02T05:40:59.357Z,1019.27
2019-03-02T05:41:39.160Z,1019.29
2019-03-02T05:42:18.366Z,1019.29
2019-03-02T05:42:58.957Z,1019.28
2019-03-02T05:43:39.554Z,1019.3
2019-03-02T05:44:20.139Z,1019.31
2019-03-02T05:45:00.733Z,1019.3
2019-03-02T05:45:41.328Z,1019.3
2019-03-02T05:46:25.222Z,1019.33
2019-03-02T05:47:02.756Z,1019.32
2019-03-02T05:47:43.098Z,1019.32
2019-03-02T05:48:23.701Z,1019.34
2019-03-02T05:49:04.279Z,1019.37
2019-03-02T05:49:44.857Z,1019.42
2019-03-02T05:50:26.437Z,1019.41
2019-03-02T05:51:06.685Z,1019.4
2019-03-02T05:51:48.570Z,1019.42
2019-03-02T05:52:27.236Z,1019.43
2019-03-02T05:53:07.836Z,1019.45
2019-03-02T05:53:48.422Z,1019.47
2019-03-02T05:54:29.026Z,1019.45
2019-03-02T05:55:09.612Z,1019.44
2019-03-02T05:55:53.592Z,1019.4
2019-03-02T05:56:30.792Z,1019.41
2019-03-02T05:57:11.392Z,1019.42
2019-03-02T05:57:51.986Z,1019.42
2019-03-02T05:58:32.574Z,1019.49
2019-03-02T05:59:13.154Z,1019.5
2019-03-02T05:59:53.736Z,1019.48
2019-03-02T06:00:37.564Z,1019.46
2019-03-02T06:01:14.915Z,1019.45
2019-03-02T06:01:55.510Z,1019.43
2019-03-02T06:02:36.100Z,1019.43
2019-03-02T06:03:18.731Z,1019.4
2019-03-02T06:03:57.265Z,1019.48
2019-03-02T06:04:37.852Z,1019.53
2019-03-02T06:05:18.435Z,1019.49
2019-03-02T06:05:59.034Z,1019.49
2019-03-02T06:06:39.616Z,1019.47
2019-03-02T06:07:20.222Z,1019.46
2019-03-02T06:08:00.816Z,1019.52
2019-03-02T06:08:41.410Z,1019.56
2019-03-02T06:09:22.012Z,1019.53
2019-03-02T06:10:02.624Z,1019.56
2019-03-02T06:10:43.214Z,1019.58
2019-03-02T06:11:23.799Z,1019.57
2019-03-02T06:12:04.390Z,1019.61
2019-03-02T06:12:47.861Z,1019.62
2019-03-02T06:13:28.235Z,1019.59
2019-03-02T06:14:07.921Z,1019.6
2019-03-02T06:14:46.815Z,1019.64
2019-03-02T06:15:28.850Z,1019.58
2019-03-02T06:16:08.028Z,1019.6
2019-03-02T06:16:48.636Z,1019.54
2019-03-02T06:17:29.765Z,1019.54
2019-03-02T06:18:09.890Z,1019.55
2019-03-02T06:18:50.498Z,1019.48
2019-03-02T06:19:31.092Z,1019.51
2019-03-02T06:20:11.684Z,1019.47
2019-03-02T06:20:52.286Z,1019.45
2019-03-02T06:21:32.878Z,1019.48
2019-03-02T06:22:13.470Z,1019.44
2019-03-02T06:22:55.446Z,1019.45
2019-03-02T06:23:34.658Z,1019.4
2019-03-02T06:24:15.514Z,1019.42
2019-03-02T06:24:55.826Z,1019.43
2019-03-02T06:25:36.410Z,1019.45
2019-03-02T06:26:16.990Z,1019.45
2019-03-02T06:26:57.580Z,1019.45
2019-03-02T06:27:38.168Z,1019.45
2019-03-02T06:28:19.555Z,1019.47
2019-03-02T06:28:59.373Z,1019.49
2019-03-02T06:29:39.958Z,1019.49
2019-03-02T06:30:20.566Z,1019.45
2019-03-02T06:31:01.162Z,1019.45
2019-03-02T06:31:41.787Z,1019.41
2019-03-02T06:32:22.362Z,1019.4
2019-03-02T06:33:04.980Z,1019.41
2019-03-02T06:33:44.023Z,1019.38
2019-03-02T06:34:24.130Z,1019.41
2019-03-02T06:35:04.716Z,1019.42
2019-03-02T06:35:45.294Z,1019.4
2019-03-02T06:36:25.888Z,1019.39
2019-03-02T06:37:06.482Z,1019.38
2019-03-02T06:37:47.078Z,1019.4
2019-03-02T06:38:28.826Z,1019.43
2019-03-02T06:39:09.107Z,1019.37
2019-03-02T06:39:48.832Z,1019.39
2019-03-02T06:40:29.426Z,1019.41
2019-03-02T06:41:10.035Z,1019.42
2019-03-02T06:41:50.624Z,1019.4
2019-03-02T06:42:31.218Z,1019.42
2019-03-02T06:43:11.815Z,1019.41
2019-03-02T06:43:55.008Z,1019.41
2019-03-02T06:44:34.112Z,1019.41
2019-03-02T06:45:13.660Z,1019.4
2019-03-02T06:45:54.286Z,1019.4
2019-03-02T06:46:34.884Z,1019.39
2019-03-02T06:47:15.496Z,1019.4
2019-03-02T06:47:56.098Z,1019.4
2019-03-02T06:48:36.678Z,1019.42
2019-03-02T06:49:19.870Z,1019.42
2019-03-02T06:49:59.284Z,1019.39
2019-03-02T06:50:38.448Z,1019.43
2019-03-02T06:51:19.054Z,1019.39
2019-03-02T06:51:59.679Z,1019.38
2019-03-02T06:52:40.264Z,1019.41
2019-03-02T06:53:20.876Z,1019.4
2019-03-02T06:54:01.472Z,1019.42
2019-03-02T06:54:44.889Z,1019.38
2019-03-02T06:55:24.345Z,1019.41
2019-03-02T06:56:03.236Z,1019.36
2019-03-02T06:56:43.836Z,1019.37
2019-03-02T06:57:24.444Z,1019.44
2019-03-02T06:58:05.053Z,1019.43
2019-03-02T06:58:45.636Z,1019.49
2019-03-02T06:59:26.222Z,1019.49
2019-03-02T07:00:06.958Z,1019.56
2019-03-02T07:00:48.829Z,1019.53
2019-03-02T07:01:28.620Z,1019.57
2019-03-02T07:02:09.349Z,1019.6
2019-03-02T07:02:50.650Z,1019.59
2019-03-02T07:03:31.289Z,1019.59
2019-03-02T07:04:11.901Z,1019.62
2019-03-02T07:04:55.003Z,1019.63
2019-03-02T07:05:33.665Z,1019.62
2019-03-02T07:06:13.688Z,1019.63
2019-03-02T07:06:54.288Z,1019.59
2019-03-02T07:07:34.876Z,1019.58
2019-03-02T07:08:15.476Z,1019.6
2019-03-02T07:08:56.050Z,1019.6
2019-03-02T07:09:36.662Z,1019.6
2019-03-02T07:10:17.650Z,1019.61
2019-03-02T07:10:58.809Z,1019.62
2019-03-02T07:11:38.448Z,1019.62
2019-03-02T07:12:19.040Z,1019.63
2019-03-02T07:12:59.630Z,1019.61
2019-03-02T07:13:40.250Z,1019.64
2019-03-02T07:14:21.087Z,1019.61
2019-03-02T07:15:04.945Z,1019.62
2019-03-02T07:15:43.672Z,1019.62
2019-03-02T07:16:22.909Z,1019.63
2019-03-02T07:17:03.506Z,1019.65
2019-03-02T07:17:44.096Z,1019.64
2019-03-02T07:18:24.688Z,1019.68
2019-03-02T07:19:05.282Z,1019.68
2019-03-02T07:19:48.548Z,1019.67
2019-03-02T07:20:27.387Z,1019.68
2019-03-02T07:21:07.100Z,1019.66
2019-03-02T07:21:47.691Z,1019.68
2019-03-02T07:22:28.284Z,1019.73
2019-03-02T07:23:08.916Z,1019.74
2019-03-02T07:23:49.507Z,1019.77
2019-03-02T07:24:30.241Z,1019.73
2019-03-02T07:25:10.706Z,1019.78
2019-03-02T07:25:51.308Z,1019.76
2019-03-02T07:26:31.937Z,1019.78
2019-03-02T07:27:12.524Z,1019.81
2019-03-02T07:27:53.177Z,1019.79
2019-03-02T07:28:33.779Z,1019.81
2019-03-02T07:29:17.659Z,1019.82
2019-03-02T07:29:55.137Z,1019.83
2019-03-02T07:30:35.708Z,1019.86
2019-03-02T07:31:16.476Z,1019.86
2019-03-02T07:31:57.077Z,1019.9
2019-03-02T07:32:37.660Z,1019.94
2019-03-02T07:33:18.268Z,1019.92
2019-03-02T07:33:58.864Z,1019.97
2019-03-02T07:34:40.656Z,1019.97
2019-03-02T07:35:20.567Z,1019.97
2019-03-02T07:36:00.704Z,1020.03
2019-03-02T07:36:41.418Z,1020.03
2019-03-02T07:37:22.306Z,1020.04
2019-03-02T07:38:02.896Z,1020.03
2019-03-02T07:38:43.480Z,1020.07
2019-03-02T07:39:24.068Z,1020.07
2019-03-02T07:40:05.613Z,1020.08
2019-03-02T07:40:45.700Z,1020.11
2019-03-02T07:41:25.831Z,1020.1
2019-03-02T07:42:06.436Z,1020.1
2019-03-02T07:42:47.030Z,1020.12
2019-03-02T07:43:27.621Z,1020.12
2019-03-02T07:44:08.238Z,1020.15
2019-03-02T07:44:48.857Z,1020.1
2019-03-02T07:45:31.207Z,1020.15
2019-03-02T07:46:11.750Z,1020.13
2019-03-02T07:46:50.679Z,1020.21
2019-03-02T07:47:31.301Z,1020.19
2019-03-02T07:48:11.929Z,1020.19
2019-03-02T07:48:52.553Z,1020.23
2019-03-02T07:49:33.150Z,1020.22
2019-03-02T07:50:13.764Z,1020.22
2019-03-02T07:50:54.349Z,1020.22
2019-03-02T07:51:37.822Z,1020.18
2019-03-02T07:52:17.115Z,1020.21
2019-03-02T07:52:56.284Z,1020.19
2019-03-02T07:53:36.877Z,1020.18
2019-03-02T07:54:17.492Z,1020.2
2019-03-02T07:54:58.637Z,1020.21
2019-03-02T07:55:38.689Z,1020.2
2019-03-02T07:56:19.304Z,1020.23
2019-03-02T07:56:59.888Z,1020.22
2019-03-02T07:57:40.778Z,1020.25
2019-03-02T07:58:21.095Z,1020.26
2019-03-02T07:59:01.691Z,1020.25
2019-03-02T07:59:42.373Z,1020.26
2019-03-02T08:00:23.044Z,1020.25
2019-03-02T08:01:03.640Z,1020.21
2019-03-02T08:01:44.478Z,1020.23
2019-03-02T08:02:25.647Z,1020.23
2019-03-02T08:03:05.603Z,1020.22
2019-03-02T08:03:46.190Z,1020.22
2019-03-02T08:04:26.814Z,1020.19
2019-03-02T08:05:10.862Z,1020.22
2019-03-02T08:05:50.692Z,1020.21
2019-03-02T08:06:28.639Z,1020.22
2019-03-02T08:07:09.222Z,1020.24
2019-03-02T08:07:49.888Z,1020.23
2019-03-02T08:08:30.481Z,1020.25
2019-03-02T08:09:11.071Z,1020.26
2019-03-02T08:09:51.674Z,1020.27
2019-03-02T08:10:34.743Z,1020.33
2019-03-02T08:11:13.452Z,1020.32
2019-03-02T08:11:53.442Z,1020.32
2019-03-02T08:12:34.039Z,1020.31
2019-03-02T08:13:14.636Z,1020.32
2019-03-02T08:13:55.237Z,1020.33
2019-03-02T08:14:35.845Z,1020.34